Terminal Aerodrome Forecast
Issued by NWS

Home | Current Version | Previous Version | Text Only | Print | Product List | Glossary On
Versions: 1 2 3 4 5 6 7 8 9 10 11 12 13 14 15 16
000
FTUS45 KSLC 261740
TAFSGU
TAF
KSGU 261740Z 2618/2718 05007KT P6SM SCT120 BKN200
     FM270400 04013G20KT P6SM SCT100 BKN150
     FM271200 08007KT P6SM SCT090 BKN130=

USA.gov is the U.S. government's official web portal to all federal, state and local government web resources and services.